sensor_id;sensor_type;location;lat;lon;timestamp;temperature;humidity
10123;DHT22;5101;49.038;8.710;2023-01-09T00:02:07;10.00;99.90
10123;DHT22;5101;49.038;8.710;2023-01-09T00:04:33;10.00;99.90
10123;DHT22;5101;49.038;8.710;2023-01-09T00:06:58;9.90;99.90
10123;DHT22;5101;49.038;8.710;2023-01-09T00:09:24;9.90;99.90
10123;DHT22;5101;49.038;8.710;2023-01-09T00:11:50;9.90;99.90
10123;DHT22;5101;49.038;8.710;2023-01-09T00:14:16;9.90;99.90
10123;DHT22;5101;49.038;8.710;2023-01-09T00:16:43;9.90;99.90
10123;DHT22;5101;49.038;8.710;2023-01-09T00:19:09;9.80;99.90
10123;DHT22;5101;49.038;8.710;2023-01-09T00:21:35;9.80;99.90
10123;DHT22;5101;49.038;8.710;2023-01-09T00:24:01;9.80;99.90
10123;DHT22;5101;49.038;8.710;2023-01-09T00:26:26;9.80;99.90
10123;DHT22;5101;49.038;8.710;2023-01-09T00:28:52;9.80;99.90
10123;DHT22;5101;49.038;8.710;2023-01-09T00:31:19;9.80;99.90
10123;DHT22;5101;49.038;8.710;2023-01-09T00:33:49;9.80;99.90
10123;DHT22;5101;49.038;8.710;2023-01-09T00:36:16;9.80;99.90
10123;DHT22;5101;49.038;8.710;2023-01-09T00:38:42;9.80;99.90
10123;DHT22;5101;49.038;8.710;2023-01-09T00:41:11;9.80;99.90
10123;DHT22;5101;49.038;8.710;2023-01-09T00:43:42;9.80;99.90
10123;DHT22;5101;49.038;8.710;2023-01-09T00:46:09;9.80;99.90
10123;DHT22;5101;49.038;8.710;2023-01-09T00:48:37;9.70;99.90
10123;DHT22;5101;49.038;8.710;2023-01-09T00:51:03;9.70;99.90
10123;DHT22;5101;49.038;8.710;2023-01-09T00:53:30;9.70;99.90
10123;DHT22;5101;49.038;8.710;2023-01-09T00:55:59;9.70;99.90
10123;DHT22;5101;49.038;8.710;2023-01-09T00:58:25;9.70;99.90
10123;DHT22;5101;49.038;8.710;2023-01-09T01:00:50;9.70;99.90
10123;DHT22;5101;49.038;8.710;2023-01-09T01:03:16;9.80;99.90
10123;DHT22;5101;49.038;8.710;2023-01-09T01:05:42;9.80;99.90
10123;DHT22;5101;49.038;8.710;2023-01-09T01:08:25;9.80;99.90
10123;DHT22;5101;49.038;8.710;2023-01-09T01:10:51;9.80;99.90
10123;DHT22;5101;49.038;8.710;2023-01-09T01:13:17;9.80;99.90
10123;DHT22;5101;49.038;8.710;2023-01-09T01:15:44;9.80;99.90
10123;DHT22;5101;49.038;8.710;2023-01-09T01:18:12;9.80;99.90
10123;DHT22;5101;49.038;8.710;2023-01-09T01:20:42;9.80;99.90
10123;DHT22;5101;49.038;8.710;2023-01-09T01:23:08;9.80;99.90
10123;DHT22;5101;49.038;8.710;2023-01-09T01:25:38;9.80;99.90
10123;DHT22;5101;49.038;8.710;2023-01-09T01:28:05;9.80;99.90
10123;DHT22;5101;49.038;8.710;2023-01-09T01:30:31;9.70;99.90
10123;DHT22;5101;49.038;8.710;2023-01-09T01:32:57;9.70;99.90
10123;DHT22;5101;49.038;8.710;2023-01-09T01:35:22;9.70;99.90
10123;DHT22;5101;49.038;8.710;2023-01-09T01:37:48;9.60;99.90
10123;DHT22;5101;49.038;8.710;2023-01-09T01:40:14;9.60;99.90
10123;DHT22;5101;49.038;8.710;2023-01-09T01:42:47;9.70;99.90
10123;DHT22;5101;49.038;8.710;2023-01-09T01:45:24;9.60;99.90
10123;DHT22;5101;49.038;8.710;2023-01-09T01:48:03;9.70;99.90
10123;DHT22;5101;49.038;8.710;2023-01-09T01:50:47;9.70;99.90
10123;DHT22;5101;49.038;8.710;2023-01-09T01:53:23;9.60;99.90
10123;DHT22;5101;49.038;8.710;2023-01-09T01:56:18;9.60;99.90
10123;DHT22;5101;49.038;8.710;2023-01-09T02:01:17;9.60;99.90
10123;DHT22;5101;49.038;8.710;2023-01-09T02:03:43;9.60;99.90
10123;DHT22;5101;49.038;8.710;2023-01-09T02:06:10;9.60;99.90
10123;DHT22;5101;49.038;8.710;2023-01-09T02:08:36;9.70;99.90
10123;DHT22;5101;49.038;8.710;2023-01-09T02:11:03;9.60;99.90
10123;DHT22;5101;49.038;8.710;2023-01-09T02:13:29;9.60;99.90
10123;DHT22;5101;49.038;8.710;2023-01-09T02:16:44;9.60;99.90
10123;DHT22;5101;49.038;8.710;2023-01-09T02:34:17;9.60;99.90
10123;DHT22;5101;49.038;8.710;2023-01-09T02:37:00;9.60;99.90
10123;DHT22;5101;49.038;8.710;2023-01-09T02:39:41;9.60;99.90
10123;DHT22;5101;49.038;8.710;2023-01-09T02:42:13;9.60;99.90
10123;DHT22;5101;49.038;8.710;2023-01-09T02:44:40;9.60;99.90
10123;DHT22;5101;49.038;8.710;2023-01-09T02:49:55;9.60;99.90
10123;DHT22;5101;49.038;8.710;2023-01-09T03:01:07;9.60;99.90
10123;DHT22;5101;49.038;8.710;2023-01-09T03:03:57;9.60;99.90
10123;DHT22;5101;49.038;8.710;2023-01-09T03:09:19;9.60;99.90
10123;DHT22;5101;49.038;8.710;2023-01-09T03:11:51;9.60;99.90
10123;DHT22;5101;49.038;8.710;2023-01-09T03:14:20;9.50;99.90
10123;DHT22;5101;49.038;8.710;2023-01-09T03:16:52;9.50;99.90
10123;DHT22;5101;49.038;8.710;2023-01-09T03:19:22;9.50;99.90
10123;DHT22;5101;49.038;8.710;2023-01-09T03:21:48;9.40;99.90
10123;DHT22;5101;49.038;8.710;2023-01-09T03:24:14;9.40;99.90
10123;DHT22;5101;49.038;8.710;2023-01-09T03:26:40;9.30;99.90
10123;DHT22;5101;49.038;8.710;2023-01-09T03:29:06;9.20;99.90
10123;DHT22;5101;49.038;8.710;2023-01-09T03:31:31;9.10;99.90
10123;DHT22;5101;49.038;8.710;2023-01-09T03:33:57;9.00;99.90
10123;DHT22;5101;49.038;8.710;2023-01-09T03:36:23;8.90;99.90
10123;DHT22;5101;49.038;8.710;2023-01-09T03:38:48;8.80;99.90
10123;DHT22;5101;49.038;8.710;2023-01-09T03:41:15;8.80;99.90
10123;DHT22;5101;49.038;8.710;2023-01-09T03:43:41;8.70;99.90
10123;DHT22;5101;49.038;8.710;2023-01-09T03:46:06;8.70;99.90
10123;DHT22;5101;49.038;8.710;2023-01-09T03:48:32;8.60;99.90
10123;DHT22;5101;49.038;8.710;2023-01-09T03:50:58;8.60;99.90
10123;DHT22;5101;49.038;8.710;2023-01-09T03:53:25;8.50;99.90
10123;DHT22;5101;49.038;8.710;2023-01-09T03:55:53;8.60;99.90
10123;DHT22;5101;49.038;8.710;2023-01-09T03:58:20;8.50;99.90
10123;DHT22;5101;49.038;8.710;2023-01-09T04:00:46;8.50;99.90
10123;DHT22;5101;49.038;8.710;2023-01-09T04:03:14;8.40;99.90
10123;DHT22;5101;49.038;8.710;2023-01-09T04:05:40;8.40;99.90
10123;DHT22;5101;49.038;8.710;2023-01-09T04:08:06;8.30;99.90
10123;DHT22;5101;49.038;8.710;2023-01-09T04:10:32;8.30;99.90
10123;DHT22;5101;49.038;8.710;2023-01-09T04:12:57;8.30;99.90
10123;DHT22;5101;49.038;8.710;2023-01-09T04:15:23;8.50;99.90
10123;DHT22;5101;49.038;8.710;2023-01-09T04:17:48;8.30;99.90
10123;DHT22;5101;49.038;8.710;2023-01-09T04:20:14;8.20;99.90
10123;DHT22;5101;49.038;8.710;2023-01-09T04:22:40;8.20;99.90
10123;DHT22;5101;49.038;8.710;2023-01-09T04:25:05;8.10;99.90
10123;DHT22;5101;49.038;8.710;2023-01-09T04:27:31;8.10;99.90
10123;DHT22;5101;49.038;8.710;2023-01-09T04:29:57;8.10;99.90
10123;DHT22;5101;49.038;8.710;2023-01-09T04:32:22;8.10;99.90
10123;DHT22;5101;49.038;8.710;2023-01-09T04:34:48;8.00;99.90
10123;DHT22;5101;49.038;8.710;2023-01-09T04:37:14;8.00;99.90
10123;DHT22;5101;49.038;8.710;2023-01-09T04:39:39;8.00;99.90
10123;DHT22;5101;49.038;8.710;2023-01-09T04:42:08;8.00;99.90
10123;DHT22;5101;49.038;8.710;2023-01-09T04:44:34;7.90;99.90
10123;DHT22;5101;49.038;8.710;2023-01-09T04:47:00;7.90;99.90
10123;DHT22;5101;49.038;8.710;2023-01-09T04:49:25;7.90;99.90
10123;DHT22;5101;49.038;8.710;2023-01-09T04:51:51;7.80;99.90
10123;DHT22;5101;49.038;8.710;2023-01-09T04:54:17;7.80;99.90
10123;DHT22;5101;49.038;8.710;2023-01-09T04:56:42;7.80;99.90
10123;DHT22;5101;49.038;8.710;2023-01-09T04:59:08;7.80;99.90
10123;DHT22;5101;49.038;8.710;2023-01-09T05:01:35;7.80;99.90
10123;DHT22;5101;49.038;8.710;2023-01-09T05:04:00;7.80;99.90
10123;DHT22;5101;49.038;8.710;2023-01-09T05:06:26;7.80;99.90
10123;DHT22;5101;49.038;8.710;2023-01-09T05:08:52;7.90;99.90
10123;DHT22;5101;49.038;8.710;2023-01-09T05:11:18;7.90;99.90
10123;DHT22;5101;49.038;8.710;2023-01-09T05:13:44;7.90;99.90
10123;DHT22;5101;49.038;8.710;2023-01-09T05:16:09;7.90;99.90
10123;DHT22;5101;49.038;8.710;2023-01-09T05:18:35;7.90;99.90
10123;DHT22;5101;49.038;8.710;2023-01-09T05:21:00;7.90;99.90
10123;DHT22;5101;49.038;8.710;2023-01-09T05:23:26;7.90;99.90
10123;DHT22;5101;49.038;8.710;2023-01-09T05:25:52;7.90;99.90
10123;DHT22;5101;49.038;8.710;2023-01-09T05:28:17;7.90;99.90
10123;DHT22;5101;49.038;8.710;2023-01-09T05:30:43;7.90;99.90
10123;DHT22;5101;49.038;8.710;2023-01-09T05:33:08;7.80;99.90
10123;DHT22;5101;49.038;8.710;2023-01-09T05:35:34;7.80;99.90
10123;DHT22;5101;49.038;8.710;2023-01-09T05:38:00;7.80;99.90
10123;DHT22;5101;49.038;8.710;2023-01-09T05:40:25;7.80;99.90
10123;DHT22;5101;49.038;8.710;2023-01-09T05:42:51;7.80;99.90
10123;DHT22;5101;49.038;8.710;2023-01-09T05:45:16;7.70;99.90
10123;DHT22;5101;49.038;8.710;2023-01-09T05:47:45;7.70;99.90
10123;DHT22;5101;49.038;8.710;2023-01-09T05:50:12;7.70;99.90
10123;DHT22;5101;49.038;8.710;2023-01-09T05:52:37;7.70;99.90
10123;DHT22;5101;49.038;8.710;2023-01-09T05:55:04;7.70;99.90
10123;DHT22;5101;49.038;8.710;2023-01-09T05:57:30;7.70;99.90
10123;DHT22;5101;49.038;8.710;2023-01-09T05:59:56;7.70;99.90
10123;DHT22;5101;49.038;8.710;2023-01-09T06:02:21;7.60;99.90
10123;DHT22;5101;49.038;8.710;2023-01-09T06:04:47;7.60;99.90
10123;DHT22;5101;49.038;8.710;2023-01-09T06:07:12;7.60;99.90
10123;DHT22;5101;49.038;8.710;2023-01-09T06:09:38;7.60;99.90
10123;DHT22;5101;49.038;8.710;2023-01-09T06:12:04;7.70;99.90
10123;DHT22;5101;49.038;8.710;2023-01-09T06:14:29;7.60;99.90
10123;DHT22;5101;49.038;8.710;2023-01-09T06:16:56;7.60;99.90
10123;DHT22;5101;49.038;8.710;2023-01-09T06:19:21;7.60;99.90
10123;DHT22;5101;49.038;8.710;2023-01-09T06:21:47;7.70;99.90
10123;DHT22;5101;49.038;8.710;2023-01-09T06:24:12;7.70;99.90
10123;DHT22;5101;49.038;8.710;2023-01-09T06:26:38;7.70;99.90
10123;DHT22;5101;49.038;8.710;2023-01-09T06:29:03;7.80;99.90
10123;DHT22;5101;49.038;8.710;2023-01-09T06:31:29;7.80;99.90
10123;DHT22;5101;49.038;8.710;2023-01-09T06:33:55;7.80;99.90
10123;DHT22;5101;49.038;8.710;2023-01-09T06:36:20;7.80;99.90
10123;DHT22;5101;49.038;8.710;2023-01-09T06:38:46;7.80;99.90
10123;DHT22;5101;49.038;8.710;2023-01-09T06:41:12;7.80;99.90
10123;DHT22;5101;49.038;8.710;2023-01-09T06:43:37;7.80;99.90
10123;DHT22;5101;49.038;8.710;2023-01-09T06:46:03;7.90;99.90
10123;DHT22;5101;49.038;8.710;2023-01-09T06:48:30;7.90;99.90
10123;DHT22;5101;49.038;8.710;2023-01-09T06:50:56;7.90;99.90
10123;DHT22;5101;49.038;8.710;2023-01-09T06:53:21;7.90;99.90
10123;DHT22;5101;49.038;8.710;2023-01-09T06:55:47;8.00;99.90
10123;DHT22;5101;49.038;8.710;2023-01-09T06:58:13;7.90;99.90
10123;DHT22;5101;49.038;8.710;2023-01-09T07:00:38;8.00;99.90
10123;DHT22;5101;49.038;8.710;2023-01-09T07:03:04;8.00;99.90
10123;DHT22;5101;49.038;8.710;2023-01-09T07:05:31;8.00;99.90
10123;DHT22;5101;49.038;8.710;2023-01-09T07:07:58;8.00;99.90
10123;DHT22;5101;49.038;8.710;2023-01-09T07:10:24;8.10;99.90
10123;DHT22;5101;49.038;8.710;2023-01-09T07:12:49;8.10;99.90
10123;DHT22;5101;49.038;8.710;2023-01-09T07:15:15;8.10;99.90
10123;DHT22;5101;49.038;8.710;2023-01-09T07:17:41;8.20;99.90
10123;DHT22;5101;49.038;8.710;2023-01-09T07:20:07;8.20;99.90
10123;DHT22;5101;49.038;8.710;2023-01-09T07:22:32;8.20;99.90
10123;DHT22;5101;49.038;8.710;2023-01-09T07:24:58;8.20;99.90
10123;DHT22;5101;49.038;8.710;2023-01-09T07:27:24;8.20;99.90
10123;DHT22;5101;49.038;8.710;2023-01-09T07:29:49;8.30;99.90
10123;DHT22;5101;49.038;8.710;2023-01-09T07:32:16;8.30;99.90
10123;DHT22;5101;49.038;8.710;2023-01-09T07:34:41;8.40;99.90
10123;DHT22;5101;49.038;8.710;2023-01-09T07:37:07;8.40;99.90
10123;DHT22;5101;49.038;8.710;2023-01-09T07:39:33;8.40;99.90
10123;DHT22;5101;49.038;8.710;2023-01-09T07:41:58;8.40;99.80
10123;DHT22;5101;49.038;8.710;2023-01-09T07:44:24;8.40;99.60
10123;DHT22;5101;49.038;8.710;2023-01-09T07:46:50;8.40;99.40
10123;DHT22;5101;49.038;8.710;2023-01-09T07:49:15;8.40;99.10
10123;DHT22;5101;49.038;8.710;2023-01-09T07:51:41;8.50;98.90
10123;DHT22;5101;49.038;8.710;2023-01-09T07:54:08;8.50;98.70
10123;DHT22;5101;49.038;8.710;2023-01-09T07:56:34;8.50;98.50
10123;DHT22;5101;49.038;8.710;2023-01-09T07:59:00;8.50;98.40
10123;DHT22;5101;49.038;8.710;2023-01-09T08:01:25;8.50;98.20
10123;DHT22;5101;49.038;8.710;2023-01-09T08:03:51;8.50;98.00
10123;DHT22;5101;49.038;8.710;2023-01-09T08:06:16;8.50;97.80
10123;DHT22;5101;49.038;8.710;2023-01-09T08:08:42;8.60;97.70
10123;DHT22;5101;49.038;8.710;2023-01-09T08:11:07;8.60;97.50
10123;DHT22;5101;49.038;8.710;2023-01-09T08:13:33;8.60;97.40
10123;DHT22;5101;49.038;8.710;2023-01-09T08:15:59;8.60;97.10
10123;DHT22;5101;49.038;8.710;2023-01-09T08:18:24;8.60;96.90
10123;DHT22;5101;49.038;8.710;2023-01-09T08:20:50;8.60;96.60
10123;DHT22;5101;49.038;8.710;2023-01-09T08:23:16;8.70;96.40
10123;DHT22;5101;49.038;8.710;2023-01-09T08:25:41;8.70;96.30
10123;DHT22;5101;49.038;8.710;2023-01-09T08:28:07;8.80;96.00
10123;DHT22;5101;49.038;8.710;2023-01-09T08:30:34;9.00;95.70
10123;DHT22;5101;49.038;8.710;2023-01-09T08:33:00;9.20;95.40
10123;DHT22;5101;49.038;8.710;2023-01-09T08:35:25;9.40;95.20
10123;DHT22;5101;49.038;8.710;2023-01-09T08:37:51;9.60;94.80
10123;DHT22;5101;49.038;8.710;2023-01-09T08:40:17;9.70;94.60
10123;DHT22;5101;49.038;8.710;2023-01-09T08:42:43;9.90;93.90
10123;DHT22;5101;49.038;8.710;2023-01-09T08:45:27;10.00;93.20
10123;DHT22;5101;49.038;8.710;2023-01-09T08:48:11;10.20;92.90
10123;DHT22;5101;49.038;8.710;2023-01-09T08:50:37;10.30;92.50
10123;DHT22;5101;49.038;8.710;2023-01-09T08:53:04;10.30;92.30
10123;DHT22;5101;49.038;8.710;2023-01-09T08:55:29;10.30;92.10
10123;DHT22;5101;49.038;8.710;2023-01-09T08:57:55;10.40;91.90
10123;DHT22;5101;49.038;8.710;2023-01-09T09:00:22;10.50;91.80
10123;DHT22;5101;49.038;8.710;2023-01-09T09:02:52;10.40;91.60
10123;DHT22;5101;49.038;8.710;2023-01-09T09:05:18;10.40;91.50
10123;DHT22;5101;49.038;8.710;2023-01-09T09:07:47;10.30;91.40
10123;DHT22;5101;49.038;8.710;2023-01-09T09:10:12;10.20;91.30
10123;DHT22;5101;49.038;8.710;2023-01-09T09:12:38;10.20;91.20
10123;DHT22;5101;49.038;8.710;2023-01-09T09:15:03;10.20;91.20
10123;DHT22;5101;49.038;8.710;2023-01-09T09:17:41;10.20;91.20
10123;DHT22;5101;49.038;8.710;2023-01-09T09:20:08;10.20;91.10
10123;DHT22;5101;49.038;8.710;2023-01-09T09:22:34;10.20;91.20
10123;DHT22;5101;49.038;8.710;2023-01-09T09:24:59;10.20;91.20
10123;DHT22;5101;49.038;8.710;2023-01-09T09:27:25;10.20;91.50
10123;DHT22;5101;49.038;8.710;2023-01-09T09:29:51;10.20;91.20
10123;DHT22;5101;49.038;8.710;2023-01-09T09:32:16;10.10;91.10
10123;DHT22;5101;49.038;8.710;2023-01-09T09:34:42;10.20;91.10
10123;DHT22;5101;49.038;8.710;2023-01-09T09:37:07;10.10;91.00
10123;DHT22;5101;49.038;8.710;2023-01-09T09:39:33;10.00;91.10
10123;DHT22;5101;49.038;8.710;2023-01-09T09:45:13;10.00;91.10
10123;DHT22;5101;49.038;8.710;2023-01-09T09:56:06;10.40;91.30
10123;DHT22;5101;49.038;8.710;2023-01-09T09:58:47;10.40;91.20
10123;DHT22;5101;49.038;8.710;2023-01-09T10:01:19;10.30;91.00
10123;DHT22;5101;49.038;8.710;2023-01-09T10:03:50;10.40;91.00
10123;DHT22;5101;49.038;8.710;2023-01-09T10:06:31;10.30;90.80
10123;DHT22;5101;49.038;8.710;2023-01-09T10:12:13;10.40;90.60
10123;DHT22;5101;49.038;8.710;2023-01-09T10:14:41;10.40;90.60
10123;DHT22;5101;49.038;8.710;2023-01-09T10:25:56;10.40;90.20
10123;DHT22;5101;49.038;8.710;2023-01-09T10:31:10;10.60;90.40
10123;DHT22;5101;49.038;8.710;2023-01-09T10:33:46;10.60;90.30
10123;DHT22;5101;49.038;8.710;2023-01-09T10:39:00;10.70;90.10
10123;DHT22;5101;49.038;8.710;2023-01-09T10:44:30;10.90;90.10
10123;DHT22;5101;49.038;8.710;2023-01-09T10:47:03;10.90;89.80
10123;DHT22;5101;49.038;8.710;2023-01-09T10:49:30;10.90;89.60
10123;DHT22;5101;49.038;8.710;2023-01-09T10:52:15;10.80;89.30
10123;DHT22;5101;49.038;8.710;2023-01-09T10:54:50;10.80;88.70
10123;DHT22;5101;49.038;8.710;2023-01-09T11:00:04;10.70;88.50
10123;DHT22;5101;49.038;8.710;2023-01-09T11:02:33;10.70;88.40
10123;DHT22;5101;49.038;8.710;2023-01-09T11:04:59;10.70;88.40
10123;DHT22;5101;49.038;8.710;2023-01-09T11:07:28;10.70;87.80
10123;DHT22;5101;49.038;8.710;2023-01-09T11:12:27;10.70;87.50
10123;DHT22;5101;49.038;8.710;2023-01-09T11:14:53;10.60;87.50
10123;DHT22;5101;49.038;8.710;2023-01-09T11:17:24;10.60;87.80
10123;DHT22;5101;49.038;8.710;2023-01-09T11:20:04;10.50;87.70
10123;DHT22;5101;49.038;8.710;2023-01-09T11:22:42;10.60;87.90
10123;DHT22;5101;49.038;8.710;2023-01-09T11:25:12;10.70;87.90
10123;DHT22;5101;49.038;8.710;2023-01-09T11:27:38;10.80;87.80
10123;DHT22;5101;49.038;8.710;2023-01-09T11:30:20;10.90;87.80
10123;DHT22;5101;49.038;8.710;2023-01-09T11:32:50;11.00;87.50
10123;DHT22;5101;49.038;8.710;2023-01-09T11:35:20;11.10;87.40
10123;DHT22;5101;49.038;8.710;2023-01-09T11:37:47;11.20;87.30
10123;DHT22;5101;49.038;8.710;2023-01-09T11:40:19;11.20;86.50
10123;DHT22;5101;49.038;8.710;2023-01-09T11:43:14;11.10;86.40
10123;DHT22;5101;49.038;8.710;2023-01-09T11:45:44;11.10;86.40
10123;DHT22;5101;49.038;8.710;2023-01-09T11:48:26;11.00;86.50
10123;DHT22;5101;49.038;8.710;2023-01-09T11:50:55;10.90;87.00
10123;DHT22;5101;49.038;8.710;2023-01-09T11:53:22;10.80;88.20
10123;DHT22;5101;49.038;8.710;2023-01-09T11:55:59;10.60;89.50
10123;DHT22;5101;49.038;8.710;2023-01-09T11:58:30;10.50;90.70
10123;DHT22;5101;49.038;8.710;2023-01-09T12:01:04;10.30;90.80
10123;DHT22;5101;49.038;8.710;2023-01-09T12:06:37;10.20;91.90
10123;DHT22;5101;49.038;8.710;2023-01-09T12:09:17;10.00;92.30
10123;DHT22;5101;49.038;8.710;2023-01-09T12:11:58;10.00;92.60
10123;DHT22;5101;49.038;8.710;2023-01-09T12:14:33;10.00;92.80
10123;DHT22;5101;49.038;8.710;2023-01-09T12:22:16;9.80;93.90
10123;DHT22;5101;49.038;8.710;2023-01-09T12:25:08;9.80;93.90
10123;DHT22;5101;49.038;8.710;2023-01-09T12:33:29;10.00;93.60
10123;DHT22;5101;49.038;8.710;2023-01-09T12:38:46;10.20;93.50
10123;DHT22;5101;49.038;8.710;2023-01-09T12:46:18;10.10;93.30
10123;DHT22;5101;49.038;8.710;2023-01-09T12:49:18;10.10;93.30
10123;DHT22;5101;49.038;8.710;2023-01-09T12:51:53;10.20;93.40
10123;DHT22;5101;49.038;8.710;2023-01-09T12:54:41;10.10;93.30
10123;DHT22;5101;49.038;8.710;2023-01-09T12:57:13;10.10;93.50
10123;DHT22;5101;49.038;8.710;2023-01-09T12:59:49;10.00;93.60
10123;DHT22;5101;49.038;8.710;2023-01-09T13:02:31;10.00;93.60
10123;DHT22;5101;49.038;8.710;2023-01-09T13:07:52;9.90;94.10
10123;DHT22;5101;49.038;8.710;2023-01-09T13:12:51;9.90;94.40
10123;DHT22;5101;49.038;8.710;2023-01-09T13:15:36;9.90;94.50
10123;DHT22;5101;49.038;8.710;2023-01-09T13:18:19;9.90;94.60
10123;DHT22;5101;49.038;8.710;2023-01-09T13:20:53;9.90;94.50
10123;DHT22;5101;49.038;8.710;2023-01-09T13:23:51;9.90;94.50
10123;DHT22;5101;49.038;8.710;2023-01-09T13:26:41;9.80;94.50
10123;DHT22;5101;49.038;8.710;2023-01-09T13:29:29;9.80;94.40
10123;DHT22;5101;49.038;8.710;2023-01-09T13:34:31;9.70;94.50
10123;DHT22;5101;49.038;8.710;2023-01-09T13:36:57;9.60;94.50
10123;DHT22;5101;49.038;8.710;2023-01-09T13:39:29;9.60;94.70
10123;DHT22;5101;49.038;8.710;2023-01-09T13:41:59;9.60;94.70
10123;DHT22;5101;49.038;8.710;2023-01-09T13:44:45;9.60;94.80
10123;DHT22;5101;49.038;8.710;2023-01-09T13:47:23;9.50;94.80
10123;DHT22;5101;49.038;8.710;2023-01-09T13:57:33;9.60;94.80
10123;DHT22;5101;49.038;8.710;2023-01-09T14:08:10;9.40;94.70
10123;DHT22;5101;49.038;8.710;2023-01-09T14:11:02;9.40;94.60
10123;DHT22;5101;49.038;8.710;2023-01-09T14:16:06;9.30;94.70
10123;DHT22;5101;49.038;8.710;2023-01-09T14:18:37;9.30;94.80
10123;DHT22;5101;49.038;8.710;2023-01-09T14:21:05;9.30;95.00
10123;DHT22;5101;49.038;8.710;2023-01-09T14:23:37;9.40;95.20
10123;DHT22;5101;49.038;8.710;2023-01-09T14:26:04;9.40;95.50
10123;DHT22;5101;49.038;8.710;2023-01-09T14:28:31;9.30;95.50
10123;DHT22;5101;49.038;8.710;2023-01-09T14:33:29;9.30;96.00
10123;DHT22;5101;49.038;8.710;2023-01-09T14:41:34;9.00;98.30
10123;DHT22;5101;49.038;8.710;2023-01-09T14:50:17;8.60;99.90
10123;DHT22;5101;49.038;8.710;2023-01-09T14:52:52;8.40;99.90
10123;DHT22;5101;49.038;8.710;2023-01-09T15:01:01;8.30;99.90
10123;DHT22;5101;49.038;8.710;2023-01-09T15:03:38;8.10;99.90
10123;DHT22;5101;49.038;8.710;2023-01-09T15:06:05;8.10;99.90
10123;DHT22;5101;49.038;8.710;2023-01-09T15:08:35;8.00;99.90
10123;DHT22;5101;49.038;8.710;2023-01-09T15:11:01;7.90;99.90
10123;DHT22;5101;49.038;8.710;2023-01-09T15:13:41;7.80;99.90
10123;DHT22;5101;49.038;8.710;2023-01-09T15:16:16;7.80;99.90
10123;DHT22;5101;49.038;8.710;2023-01-09T15:18:42;7.80;99.90
10123;DHT22;5101;49.038;8.710;2023-01-09T15:21:25;7.70;99.90
10123;DHT22;5101;49.038;8.710;2023-01-09T15:23:51;7.70;99.90
10123;DHT22;5101;49.038;8.710;2023-01-09T15:26:29;7.70;99.90
10123;DHT22;5101;49.038;8.710;2023-01-09T15:29:12;7.60;99.90
10123;DHT22;5101;49.038;8.710;2023-01-09T15:31:41;7.60;99.90
10123;DHT22;5101;49.038;8.710;2023-01-09T15:34:14;7.70;99.90
10123;DHT22;5101;49.038;8.710;2023-01-09T15:36:41;7.60;99.90
10123;DHT22;5101;49.038;8.710;2023-01-09T15:39:07;7.60;99.90
10123;DHT22;5101;49.038;8.710;2023-01-09T15:41:32;7.60;99.90
10123;DHT22;5101;49.038;8.710;2023-01-09T15:44:23;7.60;99.90
10123;DHT22;5101;49.038;8.710;2023-01-09T15:46:51;7.60;99.90
10123;DHT22;5101;49.038;8.710;2023-01-09T15:49:19;7.70;99.90
10123;DHT22;5101;49.038;8.710;2023-01-09T15:51:46;7.70;99.90
10123;DHT22;5101;49.038;8.710;2023-01-09T15:54:19;7.60;99.90
10123;DHT22;5101;49.038;8.710;2023-01-09T15:56:45;7.60;99.90
10123;DHT22;5101;49.038;8.710;2023-01-09T15:59:37;7.60;99.90
10123;DHT22;5101;49.038;8.710;2023-01-09T16:02:03;7.60;99.90
10123;DHT22;5101;49.038;8.710;2023-01-09T16:04:50;7.50;99.90
10123;DHT22;5101;49.038;8.710;2023-01-09T16:07:18;7.50;99.90
10123;DHT22;5101;49.038;8.710;2023-01-09T16:09:46;7.50;99.90
10123;DHT22;5101;49.038;8.710;2023-01-09T16:12:24;7.40;99.90
10123;DHT22;5101;49.038;8.710;2023-01-09T16:15:00;7.40;99.90
10123;DHT22;5101;49.038;8.710;2023-01-09T16:17:26;7.30;99.90
10123;DHT22;5101;49.038;8.710;2023-01-09T16:20:11;7.30;99.90
10123;DHT22;5101;49.038;8.710;2023-01-09T16:22:51;7.30;99.90
10123;DHT22;5101;49.038;8.710;2023-01-09T16:25:27;7.30;99.90
10123;DHT22;5101;49.038;8.710;2023-01-09T16:30:32;7.30;99.90
10123;DHT22;5101;49.038;8.710;2023-01-09T16:32:58;7.30;99.90
10123;DHT22;5101;49.038;8.710;2023-01-09T16:35:24;7.30;99.90
10123;DHT22;5101;49.038;8.710;2023-01-09T16:37:50;7.30;99.90
10123;DHT22;5101;49.038;8.710;2023-01-09T16:42:44;7.20;99.90
10123;DHT22;5101;49.038;8.710;2023-01-09T16:45:27;7.20;99.90
10123;DHT22;5101;49.038;8.710;2023-01-09T16:47:53;7.20;99.90
10123;DHT22;5101;49.038;8.710;2023-01-09T16:50:19;7.20;99.90
10123;DHT22;5101;49.038;8.710;2023-01-09T16:52:45;7.20;99.90
10123;DHT22;5101;49.038;8.710;2023-01-09T16:55:11;7.20;99.90
10123;DHT22;5101;49.038;8.710;2023-01-09T16:57:37;7.20;99.90
10123;DHT22;5101;49.038;8.710;2023-01-09T17:00:04;7.20;99.90
10123;DHT22;5101;49.038;8.710;2023-01-09T17:02:29;7.20;99.90
10123;DHT22;5101;49.038;8.710;2023-01-09T17:04:55;7.20;99.90
10123;DHT22;5101;49.038;8.710;2023-01-09T17:07:22;7.20;99.90
10123;DHT22;5101;49.038;8.710;2023-01-09T17:09:53;7.20;99.90
10123;DHT22;5101;49.038;8.710;2023-01-09T17:12:20;7.20;99.90
10123;DHT22;5101;49.038;8.710;2023-01-09T17:14:46;7.20;99.90
10123;DHT22;5101;49.038;8.710;2023-01-09T17:17:12;7.20;99.90
10123;DHT22;5101;49.038;8.710;2023-01-09T17:19:38;7.10;99.90
10123;DHT22;5101;49.038;8.710;2023-01-09T17:22:04;7.10;99.90
10123;DHT22;5101;49.038;8.710;2023-01-09T17:24:30;7.10;99.90
10123;DHT22;5101;49.038;8.710;2023-01-09T17:27:15;7.10;99.90
10123;DHT22;5101;49.038;8.710;2023-01-09T17:30:00;7.10;99.90
10123;DHT22;5101;49.038;8.710;2023-01-09T17:32:26;7.10;99.90
10123;DHT22;5101;49.038;8.710;2023-01-09T17:34:51;7.10;99.90
10123;DHT22;5101;49.038;8.710;2023-01-09T17:37:18;7.10;99.90
10123;DHT22;5101;49.038;8.710;2023-01-09T17:39:44;7.10;99.90
10123;DHT22;5101;49.038;8.710;2023-01-09T17:42:10;7.00;99.90
10123;DHT22;5101;49.038;8.710;2023-01-09T17:44:36;7.00;99.90
10123;DHT22;5101;49.038;8.710;2023-01-09T17:47:01;7.00;99.90
10123;DHT22;5101;49.038;8.710;2023-01-09T17:49:27;7.00;99.90
10123;DHT22;5101;49.038;8.710;2023-01-09T17:51:53;6.90;99.90
10123;DHT22;5101;49.038;8.710;2023-01-09T17:54:18;6.90;99.90
10123;DHT22;5101;49.038;8.710;2023-01-09T17:56:46;6.90;99.90
10123;DHT22;5101;49.038;8.710;2023-01-09T17:59:14;6.90;99.90
10123;DHT22;5101;49.038;8.710;2023-01-09T18:01:41;6.90;99.90
10123;DHT22;5101;49.038;8.710;2023-01-09T18:04:07;6.80;99.90
10123;DHT22;5101;49.038;8.710;2023-01-09T18:06:32;6.80;99.90
10123;DHT22;5101;49.038;8.710;2023-01-09T18:08:58;6.80;99.90
10123;DHT22;5101;49.038;8.710;2023-01-09T18:11:24;6.90;99.90
10123;DHT22;5101;49.038;8.710;2023-01-09T18:13:51;6.90;99.90
10123;DHT22;5101;49.038;8.710;2023-01-09T18:16:22;6.90;99.90
10123;DHT22;5101;49.038;8.710;2023-01-09T18:18:49;6.90;99.90
10123;DHT22;5101;49.038;8.710;2023-01-09T18:21:18;6.80;99.90
10123;DHT22;5101;49.038;8.710;2023-01-09T18:23:45;6.90;99.90
10123;DHT22;5101;49.038;8.710;2023-01-09T18:26:12;6.80;99.90
10123;DHT22;5101;49.038;8.710;2023-01-09T18:29:07;6.80;99.90
10123;DHT22;5101;49.038;8.710;2023-01-09T18:31:33;6.80;99.90
10123;DHT22;5101;49.038;8.710;2023-01-09T18:33:59;6.80;99.90
10123;DHT22;5101;49.038;8.710;2023-01-09T18:36:30;6.80;99.90